sensor_id;sensor_type;location;lat;lon;timestamp;pressure;altitude;pressure_sealevel;temperature;humidity
6393;BME280;3229;42.674;23.282;2023-02-26T00:01:26;93459.25;;;17.21;45.77
6393;BME280;3229;42.674;23.282;2023-02-26T00:03:58;93436.22;;;17.20;45.72
6393;BME280;3229;42.674;23.282;2023-02-26T00:06:25;93439.81;;;17.19;44.98
6393;BME280;3229;42.674;23.282;2023-02-26T00:08:54;93423.50;;;17.18;45.59
6393;BME280;3229;42.674;23.282;2023-02-26T00:11:21;93416.75;;;17.17;45.62
6393;BME280;3229;42.674;23.282;2023-02-26T00:13:48;93403.06;;;17.17;45.68
6393;BME280;3229;42.674;23.282;2023-02-26T00:16:24;93399.69;;;17.16;45.58
6393;BME280;3229;42.674;23.282;2023-02-26T00:18:52;93374.69;;;17.10;45.57
6393;BME280;3229;42.674;23.282;2023-02-26T00:21:20;93434.28;;;17.15;45.66
6393;BME280;3229;42.674;23.282;2023-02-26T00:23:47;93383.63;;;17.14;45.41
6393;BME280;3229;42.674;23.282;2023-02-26T00:26:16;93411.44;;;17.12;45.50
6393;BME280;3229;42.674;23.282;2023-02-26T00:28:43;93405.25;;;17.13;45.46
6393;BME280;3229;42.674;23.282;2023-02-26T00:31:11;93419.78;;;17.14;45.45
6393;BME280;3229;42.674;23.282;2023-02-26T00:33:40;93387.41;;;17.12;45.31
6393;BME280;3229;42.674;23.282;2023-02-26T00:36:15;93406.28;;;17.12;45.16
6393;BME280;3229;42.674;23.282;2023-02-26T00:38:50;93392.78;;;17.10;45.27
6393;BME280;3229;42.674;23.282;2023-02-26T00:41:23;93396.16;;;17.11;45.37
6393;BME280;3229;42.674;23.282;2023-02-26T00:43:50;93392.78;;;17.10;45.26
6393;BME280;3229;42.674;23.282;2023-02-26T00:46:21;93381.44;;;17.11;45.17
6393;BME280;3229;42.674;23.282;2023-02-26T00:48:56;93356.63;;;17.10;45.13
6393;BME280;3229;42.674;23.282;2023-02-26T00:51:30;93398.13;;;17.09;45.33
6393;BME280;3229;42.674;23.282;2023-02-26T00:54:04;93364.19;;;17.05;45.09
6393;BME280;3229;42.674;23.282;2023-02-26T00:56:34;93380.84;;;17.09;45.00
6393;BME280;3229;42.674;23.282;2023-02-26T00:59:02;93400.94;;;17.07;45.17
6393;BME280;3229;42.674;23.282;2023-02-26T01:01:29;93388.25;;;17.05;44.96
6393;BME280;3229;42.674;23.282;2023-02-26T01:03:56;93391.63;;;17.06;45.02
6393;BME280;3229;42.674;23.282;2023-02-26T01:06:25;93332.41;;;17.04;45.13
6393;BME280;3229;42.674;23.282;2023-02-26T01:08:58;93373.53;;;17.06;45.07
6393;BME280;3229;42.674;23.282;2023-02-26T01:11:28;93376.13;;;17.06;45.00
6393;BME280;3229;42.674;23.282;2023-02-26T01:13:57;93371.94;;;17.05;44.89
6393;BME280;3229;42.674;23.282;2023-02-26T01:16:27;93364.41;;;17.03;44.88
6393;BME280;3229;42.674;23.282;2023-02-26T01:19:00;93370.34;;;17.04;44.75
6393;BME280;3229;42.674;23.282;2023-02-26T01:21:31;93348.13;;;17.03;44.81
6393;BME280;3229;42.674;23.282;2023-02-26T01:24:02;93336.06;;;16.97;44.78
6393;BME280;3229;42.674;23.282;2023-02-26T01:26:30;93357.66;;;17.02;44.78
6393;BME280;3229;42.674;23.282;2023-02-26T01:28:59;93351.91;;;17.00;44.79
6393;BME280;3229;42.674;23.282;2023-02-26T01:31:35;93322.72;;;17.00;44.79
6393;BME280;3229;42.674;23.282;2023-02-26T01:34:08;93333.03;;;17.00;44.92
6393;BME280;3229;42.674;23.282;2023-02-26T01:36:43;93335.84;;;16.98;44.82
6393;BME280;3229;42.674;23.282;2023-02-26T01:39:18;93362.66;;;16.97;44.88
6393;BME280;3229;42.674;23.282;2023-02-26T01:41:47;93328.31;;;16.97;44.85
6393;BME280;3229;42.674;23.282;2023-02-26T01:44:22;93330.06;;;16.96;44.94
6393;BME280;3229;42.674;23.282;2023-02-26T01:47:03;93342.66;;;16.93;44.78
6393;BME280;3229;42.674;23.282;2023-02-26T01:49:33;93326.34;;;16.92;44.89
6393;BME280;3229;42.674;23.282;2023-02-26T01:52:01;93321.16;;;16.92;44.82
6393;BME280;3229;42.674;23.282;2023-02-26T01:54:29;93329.53;;;16.88;44.88
6393;BME280;3229;42.674;23.282;2023-02-26T01:57:00;93304.31;;;16.90;44.79
6393;BME280;3229;42.674;23.282;2023-02-26T01:59:31;93302.94;;;16.87;44.99
6393;BME280;3229;42.674;23.282;2023-02-26T02:01:59;93309.09;;;16.86;44.88
6393;BME280;3229;42.674;23.282;2023-02-26T02:04:27;93305.16;;;16.84;44.87
6393;BME280;3229;42.674;23.282;2023-02-26T02:06:57;93294.25;;;16.82;44.85
6393;BME280;3229;42.674;23.282;2023-02-26T02:09:23;93286.50;;;16.82;45.04
6393;BME280;3229;42.674;23.282;2023-02-26T02:12:01;93285.72;;;16.81;45.01
6393;BME280;3229;42.674;23.282;2023-02-26T02:14:42;93276.41;;;16.80;44.80
6393;BME280;3229;42.674;23.282;2023-02-26T02:17:15;93299.63;;;16.80;44.65
6393;BME280;3229;42.674;23.282;2023-02-26T02:22:50;93328.66;;;16.75;44.85
6393;BME280;3229;42.674;23.282;2023-02-26T02:25:39;93263.13;;;16.76;44.54
6393;BME280;3229;42.674;23.282;2023-02-26T02:28:17;93288.34;;;16.74;44.50
6393;BME280;3229;42.674;23.282;2023-02-26T02:31:05;93273.84;;;16.73;44.46
6393;BME280;3229;42.674;23.282;2023-02-26T02:33:40;93271.06;;;16.75;44.49
6393;BME280;3229;42.674;23.282;2023-02-26T02:36:12;93277.22;;;16.74;44.27
6393;BME280;3229;42.674;23.282;2023-02-26T02:38:44;93278.78;;;16.75;44.31
6393;BME280;3229;42.674;23.282;2023-02-26T02:41:16;93290.13;;;16.74;44.52
6393;BME280;3229;42.674;23.282;2023-02-26T02:43:45;93279.81;;;16.74;44.42
6393;BME280;3229;42.674;23.282;2023-02-26T02:46:17;93306.81;;;16.71;44.38
6393;BME280;3229;42.674;23.282;2023-02-26T02:48:49;93326.50;;;16.72;44.27
6393;BME280;3229;42.674;23.282;2023-02-26T02:51:21;93303.41;;;16.71;44.38
6393;BME280;3229;42.674;23.282;2023-02-26T02:53:51;93329.22;;;16.71;44.42
6393;BME280;3229;42.674;23.282;2023-02-26T02:56:23;93313.75;;;16.71;44.17
6393;BME280;3229;42.674;23.282;2023-02-26T02:58:54;93316.31;;;16.71;44.21
6393;BME280;3229;42.674;23.282;2023-02-26T03:01:25;93319.13;;;16.69;44.21
6393;BME280;3229;42.674;23.282;2023-02-26T03:03:56;93261.31;;;16.70;44.25
6393;BME280;3229;42.674;23.282;2023-02-26T03:06:23;93298.25;;;16.71;44.21
6393;BME280;3229;42.674;23.282;2023-02-26T03:08:51;93314.56;;;16.71;44.13
6393;BME280;3229;42.674;23.282;2023-02-26T03:11:18;93298.09;;;16.66;44.23
6393;BME280;3229;42.674;23.282;2023-02-26T03:13:47;93305.66;;;16.67;44.25
6393;BME280;3229;42.674;23.282;2023-02-26T03:16:32;93314.38;;;16.66;44.00
6393;BME280;3229;42.674;23.282;2023-02-26T03:19:09;93287.56;;;16.67;44.00
6393;BME280;3229;42.674;23.282;2023-02-26T03:21:48;93299.69;;;16.67;44.15
6393;BME280;3229;42.674;23.282;2023-02-26T03:24:20;93316.38;;;16.64;43.88
6393;BME280;3229;42.674;23.282;2023-02-26T03:26:54;93311.00;;;16.66;44.10
6393;BME280;3229;42.674;23.282;2023-02-26T03:29:28;93316.16;;;16.66;43.90
6393;BME280;3229;42.674;23.282;2023-02-26T03:32:04;93334.22;;;16.66;44.02
6393;BME280;3229;42.674;23.282;2023-02-26T03:34:37;93310.22;;;16.65;43.94
6393;BME280;3229;42.674;23.282;2023-02-26T03:37:09;93303.69;;;16.63;43.93
6393;BME280;3229;42.674;23.282;2023-02-26T03:39:39;93314.03;;;16.63;43.94
6393;BME280;3229;42.674;23.282;2023-02-26T03:42:13;93320.16;;;16.62;43.92
6393;BME280;3229;42.674;23.282;2023-02-26T03:44:44;93308.25;;;16.61;44.17
6393;BME280;3229;42.674;23.282;2023-02-26T03:47:15;93300.72;;;16.59;44.07
6393;BME280;3229;42.674;23.282;2023-02-26T03:49:45;93312.06;;;16.58;43.96
6393;BME280;3229;42.674;23.282;2023-02-26T03:52:14;93312.06;;;16.58;44.03
6393;BME280;3229;42.674;23.282;2023-02-26T03:54:45;93299.34;;;16.56;44.29
6393;BME280;3229;42.674;23.282;2023-02-26T03:57:12;93299.56;;;16.55;44.19
6393;BME280;3229;42.674;23.282;2023-02-26T03:59:39;93293.41;;;16.56;44.15
6393;BME280;3229;42.674;23.282;2023-02-26T04:02:10;93268.00;;;16.53;44.24
6393;BME280;3229;42.674;23.282;2023-02-26T04:04:43;93291.03;;;16.54;44.13
6393;BME280;3229;42.674;23.282;2023-02-26T04:07:13;93294.59;;;16.53;44.23
6393;BME280;3229;42.674;23.282;2023-02-26T04:09:42;93290.66;;;16.51;44.12
6393;BME280;3229;42.674;23.282;2023-02-26T04:12:09;93287.47;;;16.49;44.26
6393;BME280;3229;42.674;23.282;2023-02-26T04:14:36;93301.38;;;16.48;44.42
6393;BME280;3229;42.674;23.282;2023-02-26T04:17:03;93295.44;;;16.47;44.27
6393;BME280;3229;42.674;23.282;2023-02-26T04:19:31;93276.81;;;16.45;44.29
6393;BME280;3229;42.674;23.282;2023-02-26T04:21:59;93280.19;;;16.46;44.45
6393;BME280;3229;42.674;23.282;2023-02-26T04:24:26;93301.78;;;16.45;44.41
6393;BME280;3229;42.674;23.282;2023-02-26T04:26:52;93284.75;;;16.44;44.40
6393;BME280;3229;42.674;23.282;2023-02-26T04:29:19;93271.06;;;16.43;44.20
6393;BME280;3229;42.674;23.282;2023-02-26T04:31:46;93256.34;;;16.44;44.25
6393;BME280;3229;42.674;23.282;2023-02-26T04:34:13;93258.94;;;16.44;44.24
6393;BME280;3229;42.674;23.282;2023-02-26T04:36:40;93247.03;;;16.43;44.44
6393;BME280;3229;42.674;23.282;2023-02-26T04:39:08;93235.34;;;16.40;44.46
6393;BME280;3229;42.674;23.282;2023-02-26T04:41:35;93235.72;;;16.44;44.38
6393;BME280;3229;42.674;23.282;2023-02-26T04:44:02;93252.19;;;16.43;44.33
6393;BME280;3229;42.674;23.282;2023-02-26T04:46:29;93246.81;;;16.44;44.05
6393;BME280;3229;42.674;23.282;2023-02-26T04:48:56;93199.59;;;16.44;44.19
6393;BME280;3229;42.674;23.282;2023-02-26T04:51:23;93230.56;;;16.44;44.28
6393;BME280;3229;42.674;23.282;2023-02-26T04:53:50;93229.53;;;16.45;44.36
6393;BME280;3229;42.674;23.282;2023-02-26T04:56:18;93218.09;;;16.41;44.01
6393;BME280;3229;42.674;23.282;2023-02-26T04:58:45;93203.75;;;16.45;44.14
6393;BME280;3229;42.674;23.282;2023-02-26T05:01:12;93206.91;;;16.47;44.04
6393;BME280;3229;42.674;23.282;2023-02-26T05:03:39;93193.00;;;16.48;43.77
6393;BME280;3229;42.674;23.282;2023-02-26T05:06:06;93199.97;;;16.47;43.88
6393;BME280;3229;42.674;23.282;2023-02-26T05:08:33;93222.19;;;16.48;43.99
6393;BME280;3229;42.674;23.282;2023-02-26T05:11:00;93171.16;;;16.50;43.83
6393;BME280;3229;42.674;23.282;2023-02-26T05:13:28;93202.91;;;16.51;43.73
6393;BME280;3229;42.674;23.282;2023-02-26T05:15:54;93171.97;;;16.51;43.72
6393;BME280;3229;42.674;23.282;2023-02-26T05:18:21;93219.19;;;16.51;43.65
6393;BME280;3229;42.674;23.282;2023-02-26T05:20:51;93192.97;;;16.54;43.53
6393;BME280;3229;42.674;23.282;2023-02-26T05:23:18;93189.38;;;16.55;43.47
6393;BME280;3229;42.674;23.282;2023-02-26T05:25:45;93163.44;;;16.50;43.37
6393;BME280;3229;42.674;23.282;2023-02-26T05:28:12;93155.25;;;16.53;43.39
6393;BME280;3229;42.674;23.282;2023-02-26T05:30:41;93187.75;;;16.61;43.23
6393;BME280;3229;42.674;23.282;2023-02-26T05:33:08;93170.47;;;16.62;43.22
6393;BME280;3229;42.674;23.282;2023-02-26T05:35:34;93180.75;;;16.68;43.28
6393;BME280;3229;42.674;23.282;2023-02-26T05:38:01;93174.34;;;16.71;43.21
6393;BME280;3229;42.674;23.282;2023-02-26T05:40:28;93170.59;;;16.73;42.84
6393;BME280;3229;42.674;23.282;2023-02-26T05:42:55;93175.72;;;16.80;43.19
6393;BME280;3229;42.674;23.282;2023-02-26T05:45:21;93194.13;;;16.84;42.96
6393;BME280;3229;42.674;23.282;2023-02-26T05:47:50;93169.03;;;16.91;43.19
6393;BME280;3229;42.674;23.282;2023-02-26T05:50:16;93153.69;;;16.96;43.13
6393;BME280;3229;42.674;23.282;2023-02-26T05:52:43;93173.72;;;17.00;43.12
6393;BME280;3229;42.674;23.282;2023-02-26T05:55:10;93190.34;;;17.04;42.83
6393;BME280;3229;42.674;23.282;2023-02-26T05:57:37;93184.53;;;17.09;42.69
6393;BME280;3229;42.674;23.282;2023-02-26T06:00:06;93174.16;;;17.16;42.65
6393;BME280;3229;42.674;23.282;2023-02-26T06:02:33;93205.31;;;17.21;42.61
6393;BME280;3229;42.674;23.282;2023-02-26T06:05:01;93176.59;;;17.29;42.38
6393;BME280;3229;42.674;23.282;2023-02-26T06:07:28;93199.19;;;17.34;42.41
6393;BME280;3229;42.674;23.282;2023-02-26T06:09:55;93219.59;;;17.42;42.47
6393;BME280;3229;42.674;23.282;2023-02-26T06:12:22;93214.13;;;17.50;42.21
6393;BME280;3229;42.674;23.282;2023-02-26T06:14:49;93173.69;;;17.55;42.01
6393;BME280;3229;42.674;23.282;2023-02-26T06:17:16;93195.59;;;17.71;41.69
6393;BME280;3229;42.674;23.282;2023-02-26T06:19:43;93185.53;;;17.82;41.68
6393;BME280;3229;42.674;23.282;2023-02-26T06:22:11;93202.25;;;17.97;41.41
6393;BME280;3229;42.674;23.282;2023-02-26T06:24:38;93231.06;;;18.13;41.61
6393;BME280;3229;42.674;23.282;2023-02-26T06:27:05;93282.81;;;18.31;41.43
6393;BME280;3229;42.674;23.282;2023-02-26T06:29:32;93202.16;;;18.46;41.18
6393;BME280;3229;42.674;23.282;2023-02-26T06:32:01;93211.97;;;18.67;41.07
6393;BME280;3229;42.674;23.282;2023-02-26T06:34:28;93236.22;;;18.85;40.82
6393;BME280;3229;42.674;23.282;2023-02-26T06:36:55;93206.06;;;19.02;40.74
6393;BME280;3229;42.674;23.282;2023-02-26T06:39:23;93188.03;;;19.19;40.53
6393;BME280;3229;42.674;23.282;2023-02-26T06:41:50;93199.25;;;19.36;40.24
6393;BME280;3229;42.674;23.282;2023-02-26T06:44:17;93235.75;;;19.58;40.04
6393;BME280;3229;42.674;23.282;2023-02-26T06:46:44;93191.31;;;19.78;39.95
6393;BME280;3229;42.674;23.282;2023-02-26T06:49:11;93184.13;;;19.97;39.46
6393;BME280;3229;42.674;23.282;2023-02-26T06:51:38;93167.31;;;20.16;39.14
6393;BME280;3229;42.674;23.282;2023-02-26T06:54:04;93215.19;;;20.37;39.08
6393;BME280;3229;42.674;23.282;2023-02-26T06:56:33;93198.63;;;20.55;38.98
6393;BME280;3229;42.674;23.282;2023-02-26T06:59:00;93194.22;;;20.72;38.87
6393;BME280;3229;42.674;23.282;2023-02-26T07:01:27;93188.00;;;20.90;38.46
6393;BME280;3229;42.674;23.282;2023-02-26T07:03:56;93195.53;;;21.09;38.46
6393;BME280;3229;42.674;23.282;2023-02-26T07:06:23;93192.66;;;21.27;38.14
6393;BME280;3229;42.674;23.282;2023-02-26T07:08:49;93175.38;;;21.54;37.80
6393;BME280;3229;42.674;23.282;2023-02-26T07:11:16;93178.78;;;21.82;37.48
6393;BME280;3229;42.674;23.282;2023-02-26T07:13:45;93223.13;;;22.14;37.34
6393;BME280;3229;42.674;23.282;2023-02-26T07:16:11;93194.59;;;22.51;37.34
6393;BME280;3229;42.674;23.282;2023-02-26T07:18:38;93203.78;;;22.91;36.98
6393;BME280;3229;42.674;23.282;2023-02-26T07:21:05;93147.63;;;23.21;37.39
6393;BME280;3229;42.674;23.282;2023-02-26T07:23:32;93220.97;;;23.72;41.90
6393;BME280;3229;42.674;23.282;2023-02-26T07:25:59;93161.56;;;24.10;42.87
6393;BME280;3229;42.674;23.282;2023-02-26T07:28:27;93178.59;;;24.48;43.66
6393;BME280;3229;42.674;23.282;2023-02-26T07:30:56;93190.66;;;24.74;43.95
6393;BME280;3229;42.674;23.282;2023-02-26T07:33:23;93158.47;;;24.89;44.19
6393;BME280;3229;42.674;23.282;2023-02-26T07:35:51;93191.13;;;25.02;44.57
6393;BME280;3229;42.674;23.282;2023-02-26T07:38:19;93206.03;;;25.17;44.64
6393;BME280;3229;42.674;23.282;2023-02-26T07:40:45;93207.59;;;25.28;44.41
6393;BME280;3229;42.674;23.282;2023-02-26T07:43:12;93211.50;;;25.41;44.49
6393;BME280;3229;42.674;23.282;2023-02-26T07:45:39;93209.09;;;25.60;43.85
6393;BME280;3229;42.674;23.282;2023-02-26T07:48:07;93183.63;;;25.75;42.64
6393;BME280;3229;42.674;23.282;2023-02-26T07:50:34;93232.34;;;25.87;43.04
6393;BME280;3229;42.674;23.282;2023-02-26T07:53:01;93188.81;;;25.96;43.00
6393;BME280;3229;42.674;23.282;2023-02-26T07:55:28;93203.72;;;26.00;43.33
6393;BME280;3229;42.674;23.282;2023-02-26T07:57:54;93214.97;;;26.06;42.86
6393;BME280;3229;42.674;23.282;2023-02-26T08:00:21;93184.53;;;26.10;42.09
6393;BME280;3229;42.674;23.282;2023-02-26T08:02:48;93201.81;;;26.11;42.40
6393;BME280;3229;42.674;23.282;2023-02-26T08:05:17;93199.72;;;26.13;42.98
6393;BME280;3229;42.674;23.282;2023-02-26T08:07:43;93206.81;;;26.13;42.77
6393;BME280;3229;42.674;23.282;2023-02-26T08:10:10;93199.72;;;26.13;42.83
6393;BME280;3229;42.674;23.282;2023-02-26T08:12:37;93205.75;;;26.14;42.44
6393;BME280;3229;42.674;23.282;2023-02-26T08:15:05;93189.50;;;26.12;42.44
6393;BME280;3229;42.674;23.282;2023-02-26T08:17:32;93180.63;;;26.08;41.97
6393;BME280;3229;42.674;23.282;2023-02-26T08:19:59;93196.94;;;25.99;41.65
6393;BME280;3229;42.674;23.282;2023-02-26T08:22:27;93228.63;;;25.98;41.57
6393;BME280;3229;42.674;23.282;2023-02-26T08:24:54;93200.09;;;25.91;41.05
6393;BME280;3229;42.674;23.282;2023-02-26T08:27:21;93226.81;;;25.88;40.62
6393;BME280;3229;42.674;23.282;2023-02-26T08:29:48;93201.94;;;25.86;40.61
6393;BME280;3229;42.674;23.282;2023-02-26T08:32:15;93225.78;;;25.84;40.38
6393;BME280;3229;42.674;23.282;2023-02-26T08:34:44;93222.69;;;25.82;40.24
6393;BME280;3229;42.674;23.282;2023-02-26T08:37:11;93220.31;;;25.81;40.27
6393;BME280;3229;42.674;23.282;2023-02-26T08:39:40;93271.91;;;25.80;40.13
6393;BME280;3229;42.674;23.282;2023-02-26T08:42:08;93251.50;;;25.82;39.78
6393;BME280;3229;42.674;23.282;2023-02-26T08:44:35;93265.88;;;25.85;39.96
6393;BME280;3229;42.674;23.282;2023-02-26T08:47:02;93259.03;;;25.89;40.13
6393;BME280;3229;42.674;23.282;2023-02-26T08:49:29;93260.34;;;25.86;40.10
6393;BME280;3229;42.674;23.282;2023-02-26T08:51:56;93256.69;;;25.87;40.02
6393;BME280;3229;42.674;23.282;2023-02-26T08:54:23;93256.16;;;25.85;40.19
6393;BME280;3229;42.674;23.282;2023-02-26T08:56:52;93248.59;;;25.84;39.82
6393;BME280;3229;42.674;23.282;2023-02-26T08:59:20;93247.28;;;25.81;40.10
6393;BME280;3229;42.674;23.282;2023-02-26T09:01:47;93238.38;;;25.77;40.03
6393;BME280;3229;42.674;23.282;2023-02-26T09:04:14;93233.13;;;25.72;39.45
6393;BME280;3229;42.674;23.282;2023-02-26T09:06:41;93247.31;;;25.66;39.50
6393;BME280;3229;42.674;23.282;2023-02-26T09:09:08;93258.31;;;25.63;39.44
6393;BME280;3229;42.674;23.282;2023-02-26T09:11:35;93274.78;;;25.63;39.10
6393;BME280;3229;42.674;23.282;2023-02-26T09:14:04;93276.09;;;25.71;38.63
6393;BME280;3229;42.674;23.282;2023-02-26T09:16:31;93289.72;;;25.78;38.56
6393;BME280;3229;42.674;23.282;2023-02-26T09:18:59;93262.72;;;25.88;38.42
6393;BME280;3229;42.674;23.282;2023-02-26T09:21:26;93278.66;;;26.01;37.58
6393;BME280;3229;42.674;23.282;2023-02-26T09:23:53;93267.59;;;26.15;37.80
6393;BME280;3229;42.674;23.282;2023-02-26T09:26:20;93289.06;;;26.22;37.27
6393;BME280;3229;42.674;23.282;2023-02-26T09:28:47;93257.75;;;26.41;37.07
6393;BME280;3229;42.674;23.282;2023-02-26T09:31:15;93285.53;;;26.52;36.92
6393;BME280;3229;42.674;23.282;2023-02-26T09:33:42;93276.53;;;26.63;36.26
6393;BME280;3229;42.674;23.282;2023-02-26T09:36:09;93303.22;;;26.75;36.22
6393;BME280;3229;42.674;23.282;2023-02-26T09:38:36;93280.34;;;26.86;36.26
6393;BME280;3229;42.674;23.282;2023-02-26T09:41:05;93303.38;;;26.94;35.96
6393;BME280;3229;42.674;23.282;2023-02-26T09:43:46;93298.03;;;27.05;35.83
6393;BME280;3229;42.674;23.282;2023-02-26T09:46:24;93295.94;;;27.12;35.92
6393;BME280;3229;42.674;23.282;2023-02-26T09:49:03;93308.22;;;27.16;35.64
6393;BME280;3229;42.674;23.282;2023-02-26T09:51:32;93300.06;;;27.18;35.90
6393;BME280;3229;42.674;23.282;2023-02-26T09:54:04;93271.97;;;27.18;35.52
6393;BME280;3229;42.674;23.282;2023-02-26T09:56:33;93289.56;;;27.18;35.33
6393;BME280;3229;42.674;23.282;2023-02-26T09:59:02;93279.34;;;27.16;35.71
6393;BME280;3229;42.674;23.282;2023-02-26T10:01:34;93297.44;;;27.18;35.25
6393;BME280;3229;42.674;23.282;2023-02-26T10:04:12;93307.16;;;27.17;35.23
6393;BME280;3229;42.674;23.282;2023-02-26T10:06:56;93298.22;;;27.18;34.96
6393;BME280;3229;42.674;23.282;2023-02-26T10:09:35;93289.03;;;27.16;35.05
6393;BME280;3229;42.674;23.282;2023-02-26T10:12:08;93250.28;;;27.02;34.83
6393;BME280;3229;42.674;23.282;2023-02-26T10:14:40;93288.84;;;27.12;35.11
6393;BME280;3229;42.674;23.282;2023-02-26T10:17:18;93278.88;;;27.09;34.99
6393;BME280;3229;42.674;23.282;2023-02-26T10:19:51;93279.38;;;27.06;34.75
6393;BME280;3229;42.674;23.282;2023-02-26T10:22:23;93243.47;;;27.01;35.06
6393;BME280;3229;42.674;23.282;2023-02-26T10:24:59;93250.91;;;26.94;35.13
6393;BME280;3229;42.674;23.282;2023-02-26T10:27:38;93238.84;;;26.88;34.78
6393;BME280;3229;42.674;23.282;2023-02-26T10:30:11;93254.91;;;26.82;35.14
6393;BME280;3229;42.674;23.282;2023-02-26T10:32:48;93236.84;;;26.75;35.17
6393;BME280;3229;42.674;23.282;2023-02-26T10:35:18;93256.31;;;26.69;34.93
6393;BME280;3229;42.674;23.282;2023-02-26T10:37:52;93183.47;;;26.61;34.86
6393;BME280;3229;42.674;23.282;2023-02-26T10:40:25;93213.38;;;26.55;34.80
6393;BME280;3229;42.674;23.282;2023-02-26T10:42:57;93220.75;;;26.52;34.60
6393;BME280;3229;42.674;23.282;2023-02-26T10:45:33;93221.06;;;26.46;34.46
6393;BME280;3229;42.674;23.282;2023-02-26T10:48:22;93210.56;;;26.41;34.48
6393;BME280;3229;42.674;23.282;2023-02-26T10:50:55;93211.44;;;26.31;35.04
6393;BME280;3229;42.674;23.282;2023-02-26T10:53:23;93225.31;;;26.32;34.63
6393;BME280;3229;42.674;23.282;2023-02-26T10:55:52;93207.00;;;26.26;34.77
6393;BME280;3229;42.674;23.282;2023-02-26T10:58:23;93197.38;;;26.17;34.98
6393;BME280;3229;42.674;23.282;2023-02-26T11:00:52;93191.91;;;26.08;34.66
6393;BME280;3229;42.674;23.282;2023-02-26T11:03:28;93196.13;;;25.99;35.03
6393;BME280;3229;42.674;23.282;2023-02-26T11:05:56;93219.75;;;25.89;35.00
6393;BME280;3229;42.674;23.282;2023-02-26T11:08:26;93203.31;;;25.78;34.77
6393;BME280;3229;42.674;23.282;2023-02-26T11:10:55;93202.50;;;25.72;34.93
6393;BME280;3229;42.674;23.282;2023-02-26T11:13:23;93197.03;;;25.64;35.33
6393;BME280;3229;42.674;23.282;2023-02-26T11:15:53;93185.53;;;25.55;35.37
6393;BME280;3229;42.674;23.282;2023-02-26T11:18:24;93170.41;;;25.41;35.36
6393;BME280;3229;42.674;23.282;2023-02-26T11:20:55;93190.59;;;25.36;35.10
6393;BME280;3229;42.674;23.282;2023-02-26T11:23:25;93194.53;;;25.28;35.33
6393;BME280;3229;42.674;23.282;2023-02-26T11:25:57;93190.88;;;25.19;35.47
6393;BME280;3229;42.674;23.282;2023-02-26T11:28:30;93211.28;;;25.07;35.49
6393;BME280;3229;42.674;23.282;2023-02-26T11:31:00;93181.47;;;24.97;35.55
6393;BME280;3229;42.674;23.282;2023-02-26T11:33:34;93209.97;;;24.89;35.67
6393;BME280;3229;42.674;23.282;2023-02-26T11:36:07;93187.75;;;24.76;35.51
6393;BME280;3229;42.674;23.282;2023-02-26T11:38:35;93164.22;;;24.61;35.24
6393;BME280;3229;42.674;23.282;2023-02-26T11:41:04;93189.31;;;24.51;35.17
6393;BME280;3229;42.674;23.282;2023-02-26T11:43:36;93189.31;;;24.41;35.15
6393;BME280;3229;42.674;23.282;2023-02-26T11:46:06;93182.47;;;24.30;35.32
6393;BME280;3229;42.674;23.282;2023-02-26T11:48:39;93206.22;;;24.18;35.21
6393;BME280;3229;42.674;23.282;2023-02-26T11:51:10;93223.69;;;24.08;35.67
6393;BME280;3229;42.674;23.282;2023-02-26T11:53:42;93203.03;;;23.96;35.54
6393;BME280;3229;42.674;23.282;2023-02-26T11:56:24;93238.75;;;23.85;35.73
6393;BME280;3229;42.674;23.282;2023-02-26T11:58:52;93250.19;;;23.74;35.86
6393;BME280;3229;42.674;23.282;2023-02-26T12:01:26;93282.53;;;23.68;36.03
6393;BME280;3229;42.674;23.282;2023-02-26T12:03:57;93279.03;;;23.57;35.97
6393;BME280;3229;42.674;23.282;2023-02-26T12:06:25;93285.06;;;23.58;36.22
6393;BME280;3229;42.674;23.282;2023-02-26T12:08:52;93292.06;;;23.52;36.11
6393;BME280;3229;42.674;23.282;2023-02-26T12:11:39;93318.44;;;23.50;36.13
6393;BME280;3229;42.674;23.282;2023-02-26T12:14:34;93328.09;;;23.50;36.25
6393;BME280;3229;42.674;23.282;2023-02-26T12:17:20;93298.59;;;23.49;36.32
6393;BME280;3229;42.674;23.282;2023-02-26T12:19:57;93274.03;;;23.45;36.14
6393;BME280;3229;42.674;23.282;2023-02-26T12:22:48;93300.88;;;23.41;36.09
6393;BME280;3229;42.674;23.282;2023-02-26T12:25:49;93304.25;;;23.36;36.43
6393;BME280;3229;42.674;23.282;2023-02-26T12:28:38;93308.09;;;23.28;36.48
6393;BME280;3229;42.674;23.282;2023-02-26T12:34:28;93332.53;;;23.17;36.53
6393;BME280;3229;42.674;23.282;2023-02-26T12:37:12;93350.47;;;23.14;36.69
6393;BME280;3229;42.674;23.282;2023-02-26T12:39:53;93335.38;;;23.16;36.87
6393;BME280;3229;42.674;23.282;2023-02-26T12:42:32;93357.06;;;23.21;36.53
6393;BME280;3229;42.674;23.282;2023-02-26T12:45:23;93369.16;;;23.27;36.59
6393;BME280;3229;42.674;23.282;2023-02-26T12:48:06;93369.41;;;23.31;36.55
6393;BME280;3229;42.674;23.282;2023-02-26T12:50:48;93388.53;;;23.37;36.70
6393;BME280;3229;42.674;23.282;2023-02-26T12:53:38;93344.47;;;23.40;36.87
6393;BME280;3229;42.674;23.282;2023-02-26T12:56:43;93404.97;;;23.37;36.77
6393;BME280;3229;42.674;23.282;2023-02-26T12:59:24;93340.47;;;23.33;36.79
6393;BME280;3229;42.674;23.282;2023-02-26T13:02:05;93356.09;;;23.27;36.80
6393;BME280;3229;42.674;23.282;2023-02-26T13:05:03;93364.13;;;23.21;36.84
6393;BME280;3229;42.674;23.282;2023-02-26T13:07:52;93363.78;;;23.12;37.03
6393;BME280;3229;42.674;23.282;2023-02-26T13:10:31;93370.47;;;23.03;37.24
6393;BME280;3229;42.674;23.282;2023-02-26T13:13:14;93367.53;;;22.94;36.96
6393;BME280;3229;42.674;23.282;2023-02-26T13:15:52;93444.28;;;22.82;36.92
6393;BME280;3229;42.674;23.282;2023-02-26T13:18:27;93377.50;;;22.75;37.27
6393;BME280;3229;42.674;23.282;2023-02-26T13:20:59;93396.94;;;22.68;37.29
6393;BME280;3229;42.674;23.282;2023-02-26T13:23:32;93377.38;;;22.65;37.39
6393;BME280;3229;42.674;23.282;2023-02-26T13:26:05;93379.44;;;22.63;37.32
6393;BME280;3229;42.674;23.282;2023-02-26T13:28:38;93356.03;;;22.68;37.26
6393;BME280;3229;42.674;23.282;2023-02-26T13:31:09;93395.97;;;22.74;37.30
6393;BME280;3229;42.674;23.282;2023-02-26T13:33:38;93346.25;;;22.81;37.32
6393;BME280;3229;42.674;23.282;2023-02-26T13:36:06;93374.50;;;22.89;37.19